createdAt,value
2023-03-12T00:01:59.746Z,5.72
2023-03-12T00:04:26.686Z,5.40
2023-03-12T00:06:53.631Z,5.60
2023-03-12T00:09:20.490Z,5.57
2023-03-12T00:11:47.065Z,5.80
2023-03-12T00:14:13.674Z,6.07
2023-03-12T00:16:40.432Z,5.43
2023-03-12T00:19:07.098Z,5.57
2023-03-12T00:21:33.884Z,6.13
2023-03-12T00:24:00.462Z,5.50
2023-03-12T00:26:27.241Z,5.85
2023-03-12T00:28:53.910Z,5.47
2023-03-12T00:31:24.288Z,5.78
2023-03-12T00:33:50.951Z,6.35
2023-03-12T00:36:19.206Z,4.45
2023-03-12T00:38:45.788Z,6.22
2023-03-12T00:41:12.588Z,6.00
2023-03-12T00:43:39.358Z,4.88
2023-03-12T00:46:06.046Z,5.57
2023-03-12T00:48:32.628Z,4.88
2023-03-12T00:50:59.241Z,4.88
2023-03-12T00:53:26.194Z,4.95
2023-03-12T00:55:52.900Z,5.00
2023-03-12T00:58:19.519Z,4.78
2023-03-12T01:00:46.869Z,4.82
2023-03-12T01:03:13.957Z,4.90
2023-03-12T01:05:40.852Z,4.57
2023-03-12T01:08:09.592Z,5.88
2023-03-12T01:10:40.668Z,4.55
2023-03-12T01:13:07.412Z,5.10
2023-03-12T01:15:34.363Z,4.65
2023-03-12T01:18:02.319Z,4.93
2023-03-12T01:20:29.175Z,4.40
2023-03-12T01:22:55.729Z,4.80
2023-03-12T01:25:22.355Z,4.95
2023-03-12T01:27:48.881Z,3.65
2023-03-12T01:30:15.654Z,4.18
2023-03-12T01:32:42.266Z,4.70
2023-03-12T01:35:09.394Z,4.70
2023-03-12T01:37:35.945Z,3.83
2023-03-12T01:40:03.489Z,4.68
2023-03-12T01:42:30.098Z,5.00
2023-03-12T01:45:02.492Z,3.60
2023-03-12T01:47:33.981Z,4.72
2023-03-12T01:50:05.854Z,4.10
2023-03-12T01:52:36.607Z,4.18
2023-03-12T01:55:09.490Z,3.72
2023-03-12T01:57:57.625Z,3.85
2023-03-12T02:00:27.402Z,3.63
2023-03-12T02:03:00.493Z,3.33
2023-03-12T02:05:40.918Z,3.50
2023-03-12T02:08:07.539Z,4.20
2023-03-12T02:10:34.179Z,4.38
2023-03-12T02:13:00.827Z,4.03
2023-03-12T02:15:27.948Z,4.43
2023-03-12T02:17:54.566Z,3.90
2023-03-12T02:20:30.297Z,3.42
2023-03-12T02:23:08.945Z,3.70
2023-03-12T02:25:35.441Z,5.25
2023-03-12T02:28:06.687Z,3.97
2023-03-12T02:30:35.633Z,4.35
2023-03-12T02:33:06.410Z,4.20
2023-03-12T02:35:33.669Z,4.23
2023-03-12T02:38:00.568Z,4.38
2023-03-12T02:40:46.191Z,4.50
2023-03-12T02:43:22.719Z,3.85
2023-03-12T02:45:49.622Z,4.05
2023-03-12T02:48:16.208Z,4.40
2023-03-12T02:50:43.837Z,4.22
2023-03-12T02:53:10.497Z,4.20
2023-03-12T02:55:37.049Z,3.75
2023-03-12T02:58:03.703Z,3.80
2023-03-12T03:00:32.258Z,3.58
2023-03-12T03:03:00.206Z,3.67
2023-03-12T03:05:27.207Z,3.85
2023-03-12T03:07:53.804Z,3.30
2023-03-12T03:10:20.503Z,3.30
2023-03-12T03:12:47.151Z,4.38
2023-03-12T03:15:14.218Z,3.95
2023-03-12T03:17:41.031Z,3.88
2023-03-12T03:20:11.168Z,3.72
2023-03-12T03:22:39.084Z,3.45
2023-03-12T03:25:08.533Z,4.10
2023-03-12T03:27:35.850Z,2.75
2023-03-12T03:30:03.233Z,3.45
2023-03-12T03:32:33.025Z,3.63
2023-03-12T03:35:00.455Z,3.17
2023-03-12T03:37:27.259Z,4.03
2023-03-12T03:39:54.310Z,3.65
2023-03-12T03:42:20.999Z,4.20
2023-03-12T03:44:47.666Z,3.53
2023-03-12T03:47:14.618Z,3.35
2023-03-12T03:49:41.695Z,3.35
2023-03-12T03:52:14.504Z,3.47
2023-03-12T03:54:41.038Z,3.78
2023-03-12T03:57:08.154Z,3.65
2023-03-12T03:59:34.847Z,3.45
2023-03-12T04:02:02.243Z,3.35
2023-03-12T04:04:31.430Z,3.53
2023-03-12T04:06:58.061Z,3.05
2023-03-12T04:09:25.053Z,3.90
2023-03-12T04:11:51.688Z,3.85
2023-03-12T04:14:18.628Z,3.58
2023-03-12T04:16:45.509Z,3.15
2023-03-12T04:19:12.243Z,3.35
2023-03-12T04:21:39.625Z,3.60
2023-03-12T04:24:08.390Z,3.15
2023-03-12T04:26:35.570Z,2.63
2023-03-12T04:29:04.333Z,2.95
2023-03-12T04:31:31.210Z,3.63
2023-03-12T04:33:57.794Z,2.97
2023-03-12T04:36:24.915Z,3.38
2023-03-12T04:38:53.020Z,3.65
2023-03-12T04:41:24.186Z,3.28
2023-03-12T04:44:19.958Z,2.55
2023-03-12T04:46:46.847Z,3.13
2023-03-12T04:49:17.210Z,3.25
2023-03-12T04:51:43.958Z,3.00
2023-03-12T04:54:10.612Z,3.30
2023-03-12T04:56:39.147Z,2.58
2023-03-12T04:59:05.957Z,3.17
2023-03-12T05:01:34.803Z,3.67
2023-03-12T05:04:06.249Z,3.53
2023-03-12T05:06:33.053Z,3.72
2023-03-12T05:08:59.966Z,2.88
2023-03-12T05:11:26.716Z,3.78
2023-03-12T05:13:53.314Z,3.20
2023-03-12T05:16:20.610Z,2.80
2023-03-12T05:18:48.664Z,3.15
2023-03-12T05:21:18.681Z,3.70
2023-03-12T05:23:46.389Z,3.58
2023-03-12T05:26:19.565Z,3.08
2023-03-12T05:28:46.274Z,3.13
2023-03-12T05:31:14.589Z,3.25
2023-03-12T05:33:42.025Z,3.08
2023-03-12T05:36:10.323Z,3.17
2023-03-12T05:38:37.577Z,3.30
2023-03-12T05:41:05.766Z,2.38
2023-03-12T05:43:35.794Z,2.85
2023-03-12T05:46:04.780Z,2.85
2023-03-12T05:48:33.458Z,3.13
2023-03-12T05:51:00.400Z,3.72
2023-03-12T05:53:27.551Z,3.47
2023-03-12T05:55:54.267Z,3.80
2023-03-12T05:58:21.364Z,4.03
2023-03-12T06:00:48.810Z,3.67
2023-03-12T06:03:15.698Z,3.42
2023-03-12T06:05:44.823Z,3.80
2023-03-12T06:08:11.423Z,3.00
2023-03-12T06:10:39.250Z,3.25
2023-03-12T06:13:07.219Z,3.70
2023-03-12T06:15:35.035Z,3.50
2023-03-12T06:18:04.010Z,2.55
2023-03-12T06:20:31.645Z,3.50
2023-03-12T06:22:58.191Z,3.00
2023-03-12T06:25:25.497Z,2.58
2023-03-12T06:27:52.052Z,3.42
2023-03-12T06:30:18.782Z,3.15
2023-03-12T06:32:45.462Z,2.65
2023-03-12T06:35:12.088Z,3.50
2023-03-12T06:37:38.644Z,3.17
2023-03-12T06:40:07.562Z,3.35
2023-03-12T06:42:34.102Z,4.15
2023-03-12T06:45:00.709Z,3.70
2023-03-12T06:47:27.671Z,3.45
2023-03-12T06:49:54.198Z,3.47
2023-03-12T06:52:20.779Z,2.72
2023-03-12T06:54:47.352Z,3.83
2023-03-12T06:57:13.962Z,2.83
2023-03-12T06:59:40.530Z,2.80
2023-03-12T07:02:07.148Z,3.15
2023-03-12T07:04:33.693Z,2.50
2023-03-12T07:07:00.316Z,3.40
2023-03-12T07:09:26.874Z,2.80
2023-03-12T07:11:53.478Z,3.50
2023-03-12T07:14:21.366Z,3.20
2023-03-12T07:16:48.317Z,3.50
2023-03-12T07:19:14.945Z,3.15
2023-03-12T07:21:41.527Z,2.88
2023-03-12T07:24:08.877Z,2.88
2023-03-12T07:26:36.152Z,2.88
2023-03-12T07:29:04.228Z,2.95
2023-03-12T07:31:30.908Z,2.90
2023-03-12T07:33:57.762Z,2.50
2023-03-12T07:36:24.753Z,3.05
2023-03-12T07:38:51.456Z,2.42
2023-03-12T07:41:18.053Z,2.83
2023-03-12T07:43:44.729Z,2.50
2023-03-12T07:46:11.730Z,3.33
2023-03-12T07:48:38.758Z,3.00
2023-03-12T07:51:06.585Z,3.30
2023-03-12T07:53:33.181Z,3.50
2023-03-12T07:56:00.052Z,3.28
2023-03-12T07:58:26.830Z,3.00
2023-03-12T08:00:55.875Z,3.60
2023-03-12T08:03:22.755Z,2.50
2023-03-12T08:06:01.388Z,3.42
2023-03-12T08:08:29.278Z,3.70
2023-03-12T08:10:55.940Z,3.42
2023-03-12T08:13:23.896Z,3.08
2023-03-12T08:15:51.781Z,3.60
2023-03-12T08:18:19.686Z,3.38
2023-03-12T08:20:55.717Z,3.17
2023-03-12T08:23:22.757Z,3.42
2023-03-12T08:25:50.393Z,3.88
2023-03-12T08:28:18.315Z,2.80
2023-03-12T08:30:46.896Z,3.30
2023-03-12T08:33:13.553Z,3.00
2023-03-12T08:35:40.594Z,3.45
2023-03-12T08:38:07.213Z,3.45
2023-03-12T08:40:33.968Z,4.07
2023-03-12T08:43:00.971Z,3.92
2023-03-12T08:45:27.551Z,4.63
2023-03-12T08:47:54.178Z,3.55
2023-03-12T08:50:22.298Z,4.30
2023-03-12T08:52:48.941Z,4.55
2023-03-12T08:55:15.624Z,4.03
2023-03-12T08:57:42.334Z,4.18
2023-03-12T09:00:14.928Z,4.63
2023-03-12T09:02:44.878Z,2.63
2023-03-12T09:05:11.768Z,3.72
2023-03-12T09:07:38.780Z,4.15
2023-03-12T09:10:06.313Z,4.28
2023-03-12T09:12:32.918Z,3.97
2023-03-12T09:15:04.634Z,4.28
2023-03-12T09:19:58.532Z,3.58
2023-03-12T09:22:25.134Z,3.17
2023-03-12T09:24:51.790Z,4.03
2023-03-12T09:27:18.852Z,3.90
2023-03-12T09:29:58.840Z,4.60
2023-03-12T09:32:27.534Z,3.70
2023-03-12T09:34:54.469Z,4.72
2023-03-12T09:37:23.763Z,4.07
2023-03-12T09:39:51.697Z,4.10
2023-03-12T09:42:46.894Z,5.03
2023-03-12T09:45:23.884Z,4.22
2023-03-12T09:47:57.434Z,4.10
2023-03-12T09:50:35.495Z,4.97
2023-03-12T09:53:10.226Z,3.55
2023-03-12T09:55:42.931Z,5.40
2023-03-12T09:58:35.315Z,5.20
2023-03-12T10:04:07.853Z,4.47
2023-03-12T10:06:51.665Z,5.50
2023-03-12T10:09:39.533Z,6.45
2023-03-12T10:12:27.612Z,6.53
2023-03-12T10:14:54.162Z,6.88
2023-03-12T10:18:06.352Z,5.57
2023-03-12T10:20:33.033Z,5.18
2023-03-12T10:23:16.738Z,6.35
2023-03-12T10:25:59.513Z,6.05
2023-03-12T10:28:37.515Z,5.30
2023-03-12T10:31:17.008Z,4.90
2023-03-12T10:33:54.815Z,6.40
2023-03-12T10:36:27.121Z,7.32
2023-03-12T10:38:53.731Z,5.10
2023-03-12T10:41:29.775Z,7.72
2023-03-12T10:44:01.906Z,7.15
2023-03-12T10:46:37.412Z,6.07
2023-03-12T10:49:36.868Z,5.30
2023-03-12T10:52:16.631Z,8.75
2023-03-12T10:54:46.083Z,7.15
2023-03-12T10:57:15.217Z,8.07
2023-03-12T10:59:45.154Z,7.85
2023-03-12T11:02:29.496Z,6.20
2023-03-12T11:04:56.145Z,6.78
2023-03-12T11:07:31.693Z,8.55
2023-03-12T11:10:07.168Z,8.10
2023-03-12T11:12:52.054Z,6.25
2023-03-12T11:15:20.651Z,6.97
2023-03-12T11:17:47.602Z,7.32
2023-03-12T11:20:30.671Z,8.23
2023-03-12T11:22:57.231Z,6.65
2023-03-12T11:25:25.575Z,7.97
2023-03-12T11:27:59.612Z,9.10
2023-03-12T11:30:38.446Z,7.63
2023-03-12T11:33:05.459Z,9.55
2023-03-12T11:35:47.861Z,10.27
2023-03-12T11:38:26.372Z,9.63
2023-03-12T11:40:59.465Z,6.90
2023-03-12T11:43:44.010Z,9.43
2023-03-12T11:46:42.749Z,10.35
2023-03-12T11:49:48.581Z,9.13
2023-03-12T11:52:34.562Z,8.43
2023-03-12T11:55:25.525Z,10.07
2023-03-12T11:58:01.956Z,9.85
2023-03-12T12:00:40.235Z,10.38
2023-03-12T12:03:45.889Z,9.27
2023-03-12T12:06:56.972Z,8.95
2023-03-12T12:09:40.498Z,10.15
2023-03-12T12:12:51.655Z,9.63
2023-03-12T12:15:29.994Z,8.98
2023-03-12T12:18:03.072Z,9.75
2023-03-12T12:20:55.705Z,10.85
2023-03-12T12:24:04.133Z,9.23
2023-03-12T12:26:49.680Z,10.27
2023-03-12T12:30:14.719Z,8.77
2023-03-12T12:32:58.835Z,6.90
2023-03-12T12:35:40.313Z,7.82
2023-03-12T12:38:35.609Z,9.27
2023-03-12T12:41:15.418Z,7.55
2023-03-12T12:43:47.675Z,6.45
2023-03-12T12:46:19.352Z,10.25
2023-03-12T12:48:57.472Z,7.10
2023-03-12T12:51:30.386Z,9.40
2023-03-12T12:54:34.760Z,9.00
2023-03-12T12:57:16.269Z,10.73
2023-03-12T12:59:52.120Z,10.57
2023-03-12T13:02:27.755Z,9.30
2023-03-12T13:05:01.262Z,7.03
2023-03-12T13:07:28.176Z,7.72
2023-03-12T13:09:57.078Z,6.35
2023-03-12T13:12:29.722Z,6.97
2023-03-12T13:14:57.738Z,6.55
2023-03-12T13:17:33.404Z,6.15
2023-03-12T13:20:12.005Z,6.80
2023-03-12T13:23:06.150Z,7.78
2023-03-12T13:25:40.990Z,5.18
2023-03-12T13:28:26.391Z,6.63
2023-03-12T13:30:54.054Z,5.60
2023-03-12T13:33:39.391Z,6.20
2023-03-12T13:36:23.342Z,5.03
2023-03-12T13:38:55.243Z,5.00
2023-03-12T13:41:41.180Z,5.40
2023-03-12T13:44:23.038Z,6.30
2023-03-12T13:47:00.501Z,5.43
2023-03-12T13:49:34.784Z,4.60
2023-03-12T13:52:19.810Z,4.28
2023-03-12T13:54:50.401Z,4.93
2023-03-12T13:57:55.709Z,4.05
2023-03-12T14:00:29.141Z,4.45
2023-03-12T14:03:18.216Z,3.55
2023-03-12T14:05:59.850Z,4.88
2023-03-12T14:08:50.815Z,3.55
2023-03-12T14:11:29.500Z,3.47
2023-03-12T14:14:33.408Z,4.53
2023-03-12T14:17:01.975Z,3.35
2023-03-12T14:19:31.422Z,3.40
2023-03-12T14:22:03.068Z,3.67
2023-03-12T14:24:41.442Z,4.25
2023-03-12T14:27:30.743Z,3.55
2023-03-12T14:30:22.205Z,4.25
2023-03-12T14:32:52.409Z,2.13
2023-03-12T14:35:28.210Z,3.30
2023-03-12T14:37:58.507Z,3.33
2023-03-12T14:40:36.703Z,3.30
2023-03-12T14:43:03.498Z,4.03
2023-03-12T14:45:30.062Z,3.17
2023-03-12T14:47:58.384Z,3.20
2023-03-12T14:50:26.339Z,3.67
2023-03-12T14:52:53.747Z,3.50
2023-03-12T14:55:26.092Z,2.97
2023-03-12T14:58:14.477Z,3.47
2023-03-12T15:00:43.642Z,3.42
2023-03-12T15:03:16.556Z,3.25
2023-03-12T15:05:48.006Z,3.03
2023-03-12T15:08:15.312Z,3.80
2023-03-12T15:10:51.266Z,3.58
2023-03-12T15:13:21.131Z,2.75
2023-03-12T15:15:50.904Z,3.95
2023-03-12T15:18:28.704Z,2.63
2023-03-12T15:20:57.315Z,3.22
2023-03-12T15:23:25.734Z,3.22
2023-03-12T15:26:15.835Z,3.45
2023-03-12T15:28:43.455Z,2.83
2023-03-12T15:31:14.930Z,3.60
2023-03-12T15:33:43.488Z,3.63
2023-03-12T15:36:17.463Z,4.25
2023-03-12T15:38:54.826Z,3.92
2023-03-12T15:41:26.422Z,3.42
2023-03-12T15:43:56.977Z,3.70
2023-03-12T15:46:26.184Z,4.55
2023-03-12T15:48:56.199Z,3.80
2023-03-12T15:51:31.098Z,3.80
2023-03-12T15:54:21.494Z,3.47
2023-03-12T15:56:48.031Z,2.67
2023-03-12T15:59:24.042Z,3.00
2023-03-12T16:01:56.077Z,3.38
2023-03-12T16:04:24.501Z,3.65
2023-03-12T16:06:53.292Z,3.50
2023-03-12T16:09:24.460Z,3.45
2023-03-12T16:11:53.530Z,4.00
2023-03-12T16:14:29.659Z,2.90
2023-03-12T16:16:56.299Z,4.18
2023-03-12T16:19:23.723Z,3.22
2023-03-12T16:21:50.681Z,3.03
2023-03-12T16:24:17.262Z,2.50
2023-03-12T16:26:56.677Z,4.03
2023-03-12T16:29:31.647Z,3.17
2023-03-12T16:31:58.357Z,3.33
2023-03-12T16:34:25.168Z,3.35
2023-03-12T16:36:52.060Z,2.85
2023-03-12T16:39:19.112Z,3.08
2023-03-12T16:41:46.512Z,4.50
2023-03-12T16:44:17.591Z,3.05
2023-03-12T16:46:45.070Z,3.33
2023-03-12T16:49:17.254Z,3.58
2023-03-12T16:51:44.275Z,3.35
2023-03-12T16:54:12.388Z,3.47
2023-03-12T16:56:44.637Z,3.03
2023-03-12T16:59:25.233Z,3.50
2023-03-12T17:01:51.783Z,2.65
2023-03-12T17:04:18.337Z,4.30
2023-03-12T17:06:44.922Z,3.20
2023-03-12T17:09:11.466Z,3.90
2023-03-12T17:11:38.903Z,3.88
2023-03-12T17:14:16.498Z,3.53
2023-03-12T17:16:43.151Z,4.10
2023-03-12T17:19:09.729Z,3.45
2023-03-12T17:21:37.371Z,3.55
2023-03-12T17:24:04.269Z,2.58
2023-03-12T17:26:31.052Z,3.92
2023-03-12T17:28:57.562Z,3.35
2023-03-12T17:31:24.720Z,3.55
2023-03-12T17:33:51.421Z,3.63
2023-03-12T17:36:17.972Z,3.85
2023-03-12T17:38:44.550Z,3.35
2023-03-12T17:41:25.622Z,4.07
2023-03-12T17:43:53.649Z,3.78
2023-03-12T17:46:20.278Z,3.70
2023-03-12T17:48:46.927Z,3.30
2023-03-12T17:51:13.454Z,3.05
2023-03-12T17:53:41.787Z,4.40
2023-03-12T17:56:08.622Z,3.55
2023-03-12T17:58:35.189Z,3.97
2023-03-12T18:01:01.831Z,2.90
2023-03-12T18:03:28.587Z,3.67
2023-03-12T18:05:55.595Z,2.88
2023-03-12T18:08:22.229Z,3.22
2023-03-12T18:10:49.379Z,3.30
2023-03-12T18:13:16.039Z,3.75
2023-03-12T18:15:42.752Z,3.33
2023-03-12T18:18:09.282Z,3.75
2023-03-12T18:20:39.624Z,3.42
2023-03-12T18:23:07.589Z,4.07
2023-03-12T18:25:34.132Z,2.83
2023-03-12T18:28:00.731Z,2.88
2023-03-12T18:30:28.234Z,3.47
2023-03-12T18:32:55.031Z,3.35
2023-03-12T18:35:22.804Z,3.40
2023-03-12T18:37:51.795Z,3.15
2023-03-12T18:40:18.361Z,2.97
2023-03-12T18:42:44.924Z,3.83
2023-03-12T18:45:12.352Z,3.30
2023-03-12T18:47:39.556Z,3.40
2023-03-12T18:50:08.071Z,3.25
2023-03-12T18:52:35.395Z,3.50
2023-03-12T18:55:02.024Z,3.35
2023-03-12T18:57:28.659Z,3.55
2023-03-12T18:59:55.990Z,3.75
2023-03-12T19:02:23.711Z,2.97
2023-03-12T19:04:56.175Z,2.80
2023-03-12T19:07:25.995Z,3.55
2023-03-12T19:09:52.584Z,3.05
2023-03-12T19:12:19.259Z,3.25
2023-03-12T19:14:45.828Z,4.53
2023-03-12T19:17:12.428Z,3.10
2023-03-12T19:19:39.123Z,3.47
2023-03-12T19:22:05.749Z,3.35
2023-03-12T19:24:32.360Z,3.72
2023-03-12T19:26:58.948Z,3.22
2023-03-12T19:29:25.566Z,2.58
2023-03-12T19:31:52.258Z,2.95
2023-03-12T19:34:19.898Z,3.38
2023-03-12T19:36:46.536Z,4.35
2023-03-12T19:39:21.016Z,4.53
2023-03-12T19:41:48.587Z,3.17
2023-03-12T19:44:15.120Z,4.00
2023-03-12T19:46:43.200Z,4.32
2023-03-12T19:49:10.098Z,4.00
2023-03-12T19:51:36.796Z,4.68
2023-03-12T19:54:03.557Z,4.63
2023-03-12T19:56:30.645Z,3.58
2023-03-12T19:58:57.241Z,3.50
2023-03-12T20:01:24.829Z,3.58
2023-03-12T20:03:51.404Z,4.70
2023-03-12T20:06:18.041Z,4.10
2023-03-12T20:08:45.587Z,3.78
2023-03-12T20:11:12.268Z,3.60
2023-03-12T20:13:38.906Z,4.30
2023-03-12T20:16:07.518Z,3.90
2023-03-12T20:18:34.569Z,3.45
2023-03-12T20:21:01.243Z,4.05
2023-03-12T20:23:27.894Z,3.92
2023-03-12T20:25:54.557Z,3.67
2023-03-12T20:28:21.136Z,3.67
2023-03-12T20:30:48.527Z,4.07
2023-03-12T20:33:15.211Z,3.95
2023-03-12T20:35:41.957Z,2.95
2023-03-12T20:38:08.569Z,4.07
2023-03-12T20:40:35.214Z,3.67
2023-03-12T20:43:04.761Z,5.10
2023-03-12T20:45:32.640Z,3.85
2023-03-12T20:47:59.847Z,3.55
2023-03-12T20:50:27.626Z,4.40
2023-03-12T20:52:54.324Z,3.63
2023-03-12T20:55:20.888Z,3.65
2023-03-12T20:57:47.450Z,3.70
2023-03-12T21:00:14.312Z,4.05
2023-03-12T21:02:40.999Z,3.30
2023-03-12T21:05:10.030Z,3.97
2023-03-12T21:07:36.672Z,3.20
2023-03-12T21:10:03.858Z,4.57
2023-03-12T21:12:30.461Z,3.33
2023-03-12T21:15:05.973Z,3.70
2023-03-12T21:17:33.921Z,3.00
2023-03-12T21:20:01.520Z,3.55
2023-03-12T21:22:30.356Z,4.13
2023-03-12T21:24:57.277Z,3.72
2023-03-12T21:27:24.342Z,3.53
2023-03-12T21:29:50.910Z,4.57
2023-03-12T21:32:17.537Z,3.08
2023-03-12T21:34:44.277Z,3.00
2023-03-12T21:37:10.842Z,2.95
2023-03-12T21:39:37.443Z,3.03
2023-03-12T21:42:04.106Z,3.10
2023-03-12T21:44:30.655Z,2.72
2023-03-12T21:46:57.254Z,3.38
2023-03-12T21:49:23.957Z,3.70
2023-03-12T21:51:50.550Z,4.03
2023-03-12T21:54:17.157Z,3.97
2023-03-12T21:56:43.863Z,3.83
2023-03-12T21:59:10.759Z,3.78
2023-03-12T22:01:37.746Z,3.65
2023-03-12T22:04:05.531Z,3.53
2023-03-12T22:06:32.535Z,4.57
2023-03-12T22:08:59.214Z,3.03
2023-03-12T22:11:25.762Z,3.40
2023-03-12T22:13:52.333Z,3.40
2023-03-12T22:16:20.599Z,3.70
2023-03-12T22:18:47.300Z,3.85
2023-03-12T22:21:16.687Z,2.95
2023-03-12T22:23:43.340Z,3.22
2023-03-12T22:26:10.296Z,3.03
2023-03-12T22:28:36.797Z,5.68
2023-03-12T22:31:07.112Z,2.85
2023-03-12T22:33:38.056Z,3.15
2023-03-12T22:36:07.580Z,3.45
2023-03-12T22:38:36.553Z,4.63
2023-03-12T22:41:16.952Z,3.30
2023-03-12T22:43:44.101Z,2.50
2023-03-12T22:46:11.328Z,3.30
2023-03-12T22:48:38.129Z,3.13
2023-03-12T22:51:05.697Z,3.40
2023-03-12T22:53:32.634Z,2.50
2023-03-12T22:56:00.964Z,3.35
2023-03-12T22:58:28.573Z,3.35
2023-03-12T23:01:03.121Z,3.28
2023-03-12T23:03:30.882Z,3.83
2023-03-12T23:05:58.087Z,3.78
2023-03-12T23:08:24.995Z,2.58
2023-03-12T23:11:00.205Z,3.20
2023-03-12T23:13:28.416Z,3.00
2023-03-12T23:15:55.063Z,3.15
2023-03-12T23:18:21.796Z,2.83
2023-03-12T23:20:58.569Z,2.65
2023-03-12T23:23:26.145Z,2.78
2023-03-12T23:25:54.278Z,3.03
2023-03-12T23:28:20.938Z,2.72
2023-03-12T23:31:14.437Z,2.90
2023-03-12T23:33:41.166Z,2.28
2023-03-12T23:36:12.079Z,2.15
2023-03-12T23:38:39.206Z,3.60
2023-03-12T23:41:12.554Z,3.10
2023-03-12T23:43:39.622Z,2.85
2023-03-12T23:46:08.064Z,3.60
2023-03-12T23:48:36.198Z,3.08
2023-03-12T23:51:07.057Z,2.60
2023-03-12T23:53:34.304Z,2.97
2023-03-12T23:56:02.535Z,3.38
2023-03-12T23:58:29.399Z,3.40
